Terminal Aerodrome Forecast
Issued by NWS

Current Version | Previous Version | Text Only | Print | Product List | Glossary On
Versions: 1 2 3 4 5 6 7 8 9 10 11 12 13 14 15 16 17 18 19
000
FTUS46 KLOX 022322
TAFSBA
TAF
KSBA 022322Z 0300/0324 26012KT P6SM SKC
     FM030300 VRB03KT P6SM SCT250
     FM031000 VRB03KT 5SM BR OVC007
     FM031700 17007KT P6SM BKN008
     FM031900 24012KT P6SM FEW010=

USA.gov is the U.S. government's official web portal to all federal, state and local government web resources and services.